Time;durP1;ratioP1;P1;durP2;ratioP2;P2;SDS_P1;SDS_P2;PMS_P1;PMS_P2;Temp;Humidity;BMP_temperature;BMP_pressure;BME280_temperature;BME280_humidity;BME280_pressure;Samples;Min_cycle;Max_cycle;Signal;HPM_P1;HPM_P2
2022/12/09 00:01:34;;;;;;;16.27;8.73;;;;;;;1.43;100.00;100858.67;1782633;79;21262;-66
2022/12/09 00:04:01;;;;;;;13.35;8.30;;;;;;;1.42;100.00;100857.52;1755846;81;21443;-60
2022/12/09 00:06:29;;;;;;;13.10;8.55;;;;;;;1.43;100.00;100852.72;1756697;79;20985;-59
2022/12/09 00:08:56;;;;;;;13.65;9.30;;;;;;;1.43;100.00;100856.58;1753546;79;20980;-60
2022/12/09 00:11:23;;;;;;;13.60;9.33;;;;;;;1.48;100.00;100853.67;1752454;81;22142;-59
2022/12/09 00:13:52;;;;;;;13.25;8.48;;;;;;;1.52;100.00;100846.95;1756239;78;21286;-59
2022/12/09 00:16:19;;;;;;;14.43;8.95;;;;;;;1.46;100.00;100855.08;1756877;78;21032;-59
2022/12/09 00:18:46;;;;;;;14.18;9.30;;;;;;;1.40;100.00;100849.08;1748119;79;21386;-66
2022/12/09 00:21:26;;;;;;;15.53;10.88;;;;;;;1.40;100.00;100860.64;1786120;78;20994;-61
2022/12/09 00:23:55;;;;;;;17.15;10.68;;;;;;;1.37;100.00;100855.28;1779857;78;21077;-59
2022/12/09 00:26:23;;;;;;;18.77;10.58;;;;;;;1.37;100.00;100844.19;1783795;80;21105;-60
2022/12/09 00:28:51;;;;;;;14.40;9.00;;;;;;;1.38;100.00;100841.97;1775066;80;20924;-59
2022/12/09 00:31:23;;;;;;;13.98;9.35;;;;;;;1.39;100.00;100843.13;1764837;80;21000;-64
2022/12/09 00:33:54;;;;;;;13.98;8.48;;;;;;;1.40;100.00;100846.52;1761532;80;22484;-59
2022/12/09 00:36:22;;;;;;;16.00;10.28;;;;;;;1.41;100.00;100850.75;1766925;80;21540;-58
2022/12/09 00:38:50;;;;;;;13.85;9.48;;;;;;;1.44;100.00;100838.50;1771437;80;21107;-60
2022/12/09 00:41:17;;;;;;;15.20;10.53;;;;;;;1.47;100.00;100850.29;1764565;80;21015;-59
2022/12/09 00:43:45;;;;;;;15.28;9.58;;;;;;;1.50;100.00;100847.98;1716161;82;20996;-59
2022/12/09 00:46:12;;;;;;;17.27;10.18;;;;;;;1.53;100.00;100846.48;1739270;82;20984;-58
2022/12/09 00:48:40;;;;;;;13.60;9.45;;;;;;;1.60;100.00;100847.21;1738956;82;21009;-65
2022/12/09 00:51:09;;;;;;;15.48;10.03;;;;;;;1.65;100.00;100846.41;1739559;82;21238;-59
2022/12/09 00:53:37;;;;;;;16.50;10.03;;;;;;;1.63;100.00;100843.14;1738767;82;20885;-59
2022/12/09 00:56:06;;;;;;;13.55;9.05;;;;;;;1.68;100.00;100835.91;1739365;82;21046;-59
2022/12/09 00:58:34;;;;;;;13.08;8.25;;;;;;;1.65;100.00;100830.98;1739434;82;21487;-59
2022/12/09 01:01:01;;;;;;;12.90;9.35;;;;;;;1.72;100.00;100824.94;1738874;82;21031;-59
2022/12/09 01:03:29;;;;;;;16.95;9.88;;;;;;;1.72;100.00;100822.84;1738765;82;21217;-66
2022/12/09 01:05:57;;;;;;;15.10;9.00;;;;;;;1.69;100.00;100827.26;1739217;82;22206;-60
2022/12/09 01:08:24;;;;;;;12.45;8.83;;;;;;;1.66;100.00;100826.19;1739242;82;20972;-59
2022/12/09 01:10:51;;;;;;;12.03;7.87;;;;;;;1.64;100.00;100822.93;1738773;82;21415;-59
2022/12/09 01:13:18;;;;;;;14.33;9.18;;;;;;;1.64;100.00;100822.93;1739342;82;21439;-60
2022/12/09 01:15:47;;;;;;;14.20;8.80;;;;;;;1.62;100.00;100835.05;1738735;82;21174;-60
2022/12/09 01:18:14;;;;;;;12.73;8.65;;;;;;;1.60;100.00;100826.66;1739208;82;20952;-59
2022/12/09 01:20:42;;;;;;;12.90;8.05;;;;;;;1.60;100.00;100833.08;1738895;82;21067;-64
2022/12/09 01:23:09;;;;;;;12.93;8.33;;;;;;;1.59;100.00;100834.02;1739275;82;21074;-59
2022/12/09 01:25:37;;;;;;;13.22;8.38;;;;;;;1.57;100.00;100829.44;1738863;82;20948;-61
2022/12/09 01:28:05;;;;;;;15.88;8.43;;;;;;;1.61;100.00;100827.47;1739362;82;21306;-60
2022/12/09 01:30:32;;;;;;;13.58;8.55;;;;;;;1.57;100.00;100831.20;1743243;81;21051;-65
2022/12/09 01:32:59;;;;;;;14.10;8.03;;;;;;;1.56;100.00;100830.37;1743887;81;20954;-59
2022/12/09 01:35:27;;;;;;;13.22;7.65;;;;;;;1.54;100.00;100832.22;1744472;81;21148;-66
2022/12/09 01:37:54;;;;;;;14.20;8.90;;;;;;;1.53;100.00;100828.02;1743762;82;21039;-59
2022/12/09 01:40:22;;;;;;;15.60;8.45;;;;;;;1.56;100.00;100826.99;1744437;82;21301;-59
2022/12/09 01:42:50;;;;;;;11.73;8.38;;;;;;;1.58;100.00;100828.97;1743757;81;21403;-59
2022/12/09 01:45:29;;;;;;;14.65;10.18;;;;;;;1.60;100.00;100828.41;1744301;81;22397;-60
2022/12/09 01:48:02;;;;;;;12.35;8.33;;;;;;;1.60;100.00;100825.84;1744068;81;20987;-60
2022/12/09 01:50:29;;;;;;;13.43;8.73;;;;;;;1.61;100.00;100821.86;1733101;82;20834;-61
2022/12/09 01:52:56;;;;;;;13.13;9.03;;;;;;;1.65;100.00;100821.17;1754426;81;21277;-59
2022/12/09 01:55:25;;;;;;;13.45;8.28;;;;;;;1.68;100.00;100826.09;1733129;82;21040;-66
2022/12/09 01:57:52;;;;;;;12.68;8.28;;;;;;;1.72;100.00;100825.41;1754414;81;21200;-60
2022/12/09 02:00:21;;;;;;;13.32;8.60;;;;;;;1.79;100.00;100825.32;1733540;82;20894;-66
2022/12/09 02:02:50;;;;;;;13.00;8.58;;;;;;;1.77;100.00;100825.88;1754300;81;21424;-61
2022/12/09 02:05:18;;;;;;;12.75;8.43;;;;;;;1.80;100.00;100827.77;1733605;82;21278;-65
2022/12/09 02:07:48;;;;;;;14.03;8.63;;;;;;;1.77;100.00;100825.88;1753913;81;21367;-59
2022/12/09 02:10:15;;;;;;;12.55;7.42;;;;;;;1.83;100.00;100819.02;1733468;82;21503;-60
2022/12/09 02:13:01;;;;;;;13.08;8.45;;;;;;;1.87;100.00;100815.29;1752667;81;21041;-60
2022/12/09 02:15:36;;;;;;;12.03;7.85;;;;;;;1.93;100.00;100816.11;1732928;82;20987;-60
2022/12/09 02:18:21;;;;;;;13.78;8.68;;;;;;;1.93;100.00;100807.11;1732219;81;21149;-61
2022/12/09 02:21:02;;;;;;;13.15;8.98;;;;;;;1.94;100.00;100813.44;1733477;82;20992;-60
2022/12/09 02:23:35;;;;;;;15.38;8.85;;;;;;;1.95;100.00;100809.11;1754643;81;21062;-59
2022/12/09 02:26:22;;;;;;;16.70;9.68;;;;;;;1.99;100.00;100809.70;1732915;82;20969;-60
2022/12/09 02:28:58;;;;;;;12.70;9.15;;;;;;;1.94;100.00;100813.44;1753860;81;20927;-59
2022/12/09 02:31:44;;;;;;;13.53;7.92;;;;;;;2.00;100.00;100812.63;1726333;82;21184;-60
2022/12/09 02:34:22;;;;;;;15.20;9.35;;;;;;;1.98;100.00;100817.89;1696904;84;21007;-66
2022/12/09 02:37:19;;;;;;;12.60;8.35;;;;;;;1.99;100.00;100816.95;1725290;83;21035;-66
2022/12/09 02:39:55;;;;;;;14.20;8.15;;;;;;;2.01;100.00;100814.25;1695953;84;20965;-62
2022/12/09 02:42:25;;;;;;;12.43;8.23;;;;;;;2.05;100.00;100816.97;1699365;83;21097;-62
2022/12/09 02:44:52;;;;;;;14.70;9.03;;;;;;;2.08;100.00;100817.53;1696570;84;21363;-61
2022/12/09 02:47:24;;;;;;;10.82;7.67;;;;;;;2.07;100.00;100813.34;1725281;83;20939;-61
2022/12/09 02:49:55;;;;;;;12.73;8.58;;;;;;;2.06;100.00;100812.99;1671736;84;21042;-61
2022/12/09 02:52:22;;;;;;;13.00;7.28;;;;;;;2.05;100.00;100816.97;1725684;83;21038;-67
2022/12/09 02:54:50;;;;;;;15.15;8.13;;;;;;;2.03;100.00;100817.06;1696598;84;20964;-61
2022/12/09 02:57:24;;;;;;;11.43;8.13;;;;;;;2.04;100.00;100822.55;1725276;83;21218;-60
2022/12/09 02:59:51;;;;;;;10.63;7.12;;;;;;;2.00;100.00;100814.72;1696643;84;20919;-61
2022/12/09 03:02:34;;;;;;;14.95;7.97;;;;;;;1.90;100.00;100809.45;1725107;83;20958;-68
2022/12/09 03:05:21;;;;;;;12.40;7.70;;;;;;;1.88;100.00;100818.20;1696990;84;20964;-58
2022/12/09 03:08:17;;;;;;;13.35;8.43;;;;;;;1.81;100.00;100821.69;1724670;83;21597;-64
2022/12/09 03:11:14;;;;;;;12.15;8.00;;;;;;;1.80;100.00;100816.20;1697068;84;21284;-59
2022/12/09 03:14:14;;;;;;;13.25;7.80;;;;;;;1.77;100.00;100815.60;1725367;83;21347;-60
2022/12/09 03:17:14;;;;;;;13.78;7.87;;;;;;;1.80;100.00;100807.67;1696780;84;21070;-61
2022/12/09 03:19:51;;;;;;;11.60;7.87;;;;;;;1.80;100.00;100815.38;1725038;83;21864;-66
2022/12/09 03:22:22;;;;;;;11.85;7.60;;;;;;;1.72;100.00;100808.23;1696011;84;21041;-61
2022/12/09 03:24:58;;;;;;;10.08;6.78;;;;;;;1.68;100.00;100807.64;1725861;83;21233;-61
2022/12/09 03:27:29;;;;;;;12.00;7.58;;;;;;;1.61;100.00;100810.30;1697006;84;21020;-63
2022/12/09 03:29:56;;;;;;;12.85;8.43;;;;;;;1.61;100.00;100808.20;1725386;83;21421;-66
2022/12/09 03:32:25;;;;;;;12.03;7.75;;;;;;;1.56;100.00;100811.11;1741764;81;21529;-60
2022/12/09 03:34:57;;;;;;;11.18;7.17;;;;;;;1.52;100.00;100813.55;1749393;81;21536;-61
2022/12/09 03:37:24;;;;;;;12.40;7.62;;;;;;;1.49;100.00;100807.34;1704657;84;21235;-61
2022/12/09 03:39:51;;;;;;;12.65;7.35;;;;;;;1.50;100.00;100792.73;1734920;82;21005;-66
2022/12/09 03:42:22;;;;;;;12.15;7.30;;;;;;;1.48;100.00;100794.59;1734953;82;21041;-61
2022/12/09 03:44:59;;;;;;;12.98;8.28;;;;;;;1.44;100.00;100790.98;1704545;84;21573;-60
2022/12/09 03:47:26;;;;;;;15.18;8.50;;;;;;;1.41;100.00;100785.24;1735602;82;21030;-60
2022/12/09 03:49:54;;;;;;;9.18;6.42;;;;;;;1.42;100.00;100802.28;1703489;84;21105;-66
2022/12/09 03:52:28;;;;;;;14.65;8.55;;;;;;;1.42;100.00;100797.15;1735284;82;21073;-60
2022/12/09 03:55:02;;;;;;;15.98;8.90;;;;;;;1.43;100.00;100798.78;1727737;82;20978;-59
2022/12/09 03:57:29;;;;;;;13.62;8.55;;;;;;;1.40;100.00;100802.84;1704421;84;21022;-66
2022/12/09 03:59:59;;;;;;;14.00;8.00;;;;;;;1.43;100.00;100809.05;1734618;82;21125;-65
2022/12/09 04:02:26;;;;;;;12.63;7.33;;;;;;;1.44;100.00;100804.30;1704652;84;21283;-61
2022/12/09 04:04:53;;;;;;;15.48;7.55;;;;;;;1.43;100.00;100809.05;1735333;82;21033;-60
2022/12/09 04:07:20;;;;;;;13.62;7.72;;;;;;;1.43;100.00;100806.48;1735395;82;20926;-60
2022/12/09 04:09:48;;;;;;;11.33;7.67;;;;;;;1.43;100.00;100815.48;1734158;82;21507;-65
2022/12/09 04:12:17;;;;;;;11.93;7.45;;;;;;;1.45;100.00;100804.64;1704549;84;21066;-61
2022/12/09 04:14:45;;;;;;;12.78;7.72;;;;;;;1.45;100.00;100804.17;1735397;82;21266;-60
2022/12/09 04:17:12;;;;;;;12.70;7.53;;;;;;;1.43;100.00;100797.50;1705000;84;21026;-60
2022/12/09 04:19:40;;;;;;;14.18;8.90;;;;;;;1.43;100.00;100809.05;1744592;81;20899;-66
2022/12/09 04:22:08;;;;;;;12.85;8.10;;;;;;;1.44;100.00;100802.54;1713949;82;22347;-60
2022/12/09 04:24:36;;;;;;;12.18;7.67;;;;;;;1.65;100.00;100801.43;1737135;82;21001;-63
2022/12/09 04:27:03;;;;;;;13.43;7.45;;;;;;;1.45;100.00;100804.64;1737008;82;21478;-62
2022/12/09 04:29:30;;;;;;;13.83;7.80;;;;;;;1.39;100.00;100804.59;1737326;82;20930;-66
2022/12/09 04:31:57;;;;;;;17.57;7.75;;;;;;;1.36;100.00;100802.72;1731615;82;20870;-66
2022/12/09 04:34:25;;;;;;;21.40;8.30;;;;;;;1.33;100.00;100805.06;1729424;82;22483;-60
2022/12/09 04:36:52;;;;;;;14.53;7.45;;;;;;;1.33;100.00;100801.67;1729316;82;21105;-60
2022/12/09 04:39:20;;;;;;;12.63;8.00;;;;;;;1.31;100.00;100802.23;1729400;82;22318;-60
2022/12/09 04:41:47;;;;;;;11.00;8.05;;;;;;;1.34;100.00;100802.02;1729589;82;21392;-63
2022/12/09 04:44:14;;;;;;;14.47;8.75;;;;;;;1.36;100.00;100802.24;1728720;82;20978;-62
2022/12/09 04:46:42;;;;;;;15.45;8.43;;;;;;;1.36;100.00;100795.01;1698523;84;21486;-60
2022/12/09 04:49:09;;;;;;;15.03;8.83;;;;;;;1.36;100.00;100792.44;1729577;82;21527;-60
2022/12/09 04:51:37;;;;;;;17.85;8.90;;;;;;;1.39;100.00;100796.08;1730105;82;22418;-61
2022/12/09 04:54:04;;;;;;;17.95;9.53;;;;;;;1.43;100.00;100794.92;1729023;82;20934;-66
2022/12/09 04:56:32;;;;;;;16.93;10.25;;;;;;;1.45;100.00;100799.03;1728651;82;22325;-62
2022/12/09 04:59:00;;;;;;;12.80;8.00;;;;;;;1.50;100.00;100794.84;1729240;82;21005;-61
2022/12/09 05:01:27;;;;;;;12.98;8.25;;;;;;;1.50;100.00;100802.55;1729445;82;20921;-61
2022/12/09 05:03:54;;;;;;;14.85;8.78;;;;;;;1.49;100.00;100795.78;1729306;82;21284;-61
2022/12/09 05:06:22;;;;;;;13.25;8.38;;;;;;;1.52;100.00;100805.84;1728864;82;21138;-65
2022/12/09 05:08:50;;;;;;;15.53;8.30;;;;;;;1.53;100.00;100794.62;1697948;84;21600;-63
2022/12/09 05:11:19;;;;;;;11.80;7.37;;;;;;;1.53;100.00;100791.23;1729198;82;21051;-61
2022/12/09 05:13:46;;;;;;;15.08;9.05;;;;;;;1.50;100.00;100796.13;1729440;82;20982;-62
2022/12/09 05:16:15;;;;;;;12.82;8.28;;;;;;;1.45;100.00;100800.31;1729060;82;21262;-67
2022/12/09 05:18:42;;;;;;;12.60;9.08;;;;;;;1.46;100.00;100801.95;1729287;82;21384;-66
2022/12/09 05:21:13;;;;;;;15.95;9.28;;;;;;;1.47;100.00;100797.62;1728788;82;20957;-61
2022/12/09 05:23:41;;;;;;;15.43;8.90;;;;;;;1.48;100.00;100804.86;1729406;82;20986;-61
2022/12/09 05:26:11;;;;;;;13.43;8.90;;;;;;;1.48;100.00;100801.86;1729429;82;21393;-62
2022/12/09 05:28:39;;;;;;;13.60;9.55;;;;;;;1.50;100.00;100798.69;1729306;82;21183;-67
2022/12/09 05:31:10;;;;;;;12.30;8.93;;;;;;;1.55;100.00;100797.06;1728844;81;20966;-62
2022/12/09 05:33:37;;;;;;;13.88;9.13;;;;;;;1.56;100.00;100799.55;1698352;84;21027;-61
2022/12/09 05:36:10;;;;;;;13.18;9.80;;;;;;;1.53;100.00;100806.19;1728344;82;20976;-64
2022/12/09 05:38:37;;;;;;;14.13;8.98;;;;;;;1.53;100.00;100797.66;1734566;80;22409;-64
2022/12/09 05:41:05;;;;;;;18.35;11.25;;;;;;;1.73;100.00;100800.87;1745007;81;21265;-62
2022/12/09 05:43:32;;;;;;;16.52;10.65;;;;;;;1.56;100.00;100802.11;1744212;81;20995;-61
2022/12/09 05:46:00;;;;;;;14.63;9.28;;;;;;;1.55;100.00;100797.88;1746055;80;21026;-65
2022/12/09 05:48:28;;;;;;;16.87;9.45;;;;;;;1.57;100.00;100796.03;1755754;81;21112;-63
2022/12/09 05:51:02;;;;;;;14.23;9.13;;;;;;;1.57;100.00;100792.18;1748836;81;21119;-63
2022/12/09 05:53:30;;;;;;;14.13;8.75;;;;;;;1.52;100.00;100789.14;1707179;83;21931;-61
2022/12/09 05:55:57;;;;;;;16.95;9.95;;;;;;;1.52;100.00;100803.27;1727983;81;20989;-62
2022/12/09 05:58:25;;;;;;;13.15;8.48;;;;;;;1.52;100.00;100807.13;1744437;80;21067;-68
2022/12/09 06:00:55;;;;;;;14.78;9.68;;;;;;;1.53;100.00;100800.23;1746555;81;20914;-61
2022/12/09 06:03:21;;;;;;;13.70;9.15;;;;;;;1.53;100.00;100799.77;1717881;83;21937;-62
2022/12/09 06:05:48;;;;;;;15.60;10.28;;;;;;;1.56;100.00;100793.59;1713773;83;21167;-65
2022/12/09 06:08:16;;;;;;;15.10;9.28;;;;;;;1.60;100.00;100796.29;1712730;83;21023;-62
2022/12/09 06:10:43;;;;;;;15.38;9.28;;;;;;;1.63;100.00;100799.89;1713984;83;21064;-62
2022/12/09 06:13:10;;;;;;;15.32;8.88;;;;;;;1.65;100.00;100801.43;1723754;81;21440;-62
2022/12/09 06:15:38;;;;;;;16.55;9.60;;;;;;;1.70;100.00;100795.95;1734396;82;21162;-63
2022/12/09 06:18:05;;;;;;;17.15;9.35;;;;;;;1.73;100.00;100799.58;1725944;82;21219;-65
2022/12/09 06:20:32;;;;;;;12.50;8.48;;;;;;;1.75;100.00;100802.87;1724268;82;21144;-61
2022/12/09 06:23:00;;;;;;;14.13;8.53;;;;;;;1.76;100.00;100799.84;1729524;81;21064;-67
2022/12/09 06:25:27;;;;;;;13.85;9.05;;;;;;;1.78;100.00;100809.08;1732508;82;21058;-61
2022/12/09 06:27:55;;;;;;;14.30;9.55;;;;;;;1.81;100.00;100804.16;1729259;81;21534;-64
2022/12/09 06:30:22;;;;;;;14.75;9.93;;;;;;;1.83;100.00;100806.17;1734722;82;21460;-63
2022/12/09 06:32:49;;;;;;;16.57;10.13;;;;;;;1.88;100.00;100819.48;1757760;79;20996;-61
2022/12/09 06:35:16;;;;;;;13.90;8.70;;;;;;;1.94;100.00;100815.19;1782579;79;21029;-63
2022/12/09 06:37:44;;;;;;;13.53;8.93;;;;;;;2.00;100.00;100820.33;1784177;79;21098;-62
2022/12/09 06:40:12;;;;;;;16.12;9.28;;;;;;;2.11;100.00;100816.03;1787208;78;20990;-62
2022/12/09 06:42:39;;;;;;;12.93;9.13;;;;;;;2.18;100.00;100812.53;1785161;79;21219;-61
2022/12/09 06:45:08;;;;;;;14.23;9.18;;;;;;;2.25;100.00;100814.19;1782857;79;21485;-62
2022/12/09 06:47:35;;;;;;;19.52;11.43;;;;;;;2.32;100.00;100823.91;1782143;79;21631;-67
2022/12/09 06:50:02;;;;;;;16.40;12.00;;;;;;;2.42;100.00;100825.30;1778833;79;21580;-62
2022/12/09 06:52:31;;;;;;;24.47;15.20;;;;;;;2.58;100.00;100816.78;1775981;79;21373;-62
2022/12/09 06:54:59;;;;;;;20.00;12.90;;;;;;;2.76;100.00;100808.09;1780185;79;21115;-62
2022/12/09 06:57:27;;;;;;;19.90;12.45;;;;;;;2.97;100.00;100810.76;1778084;79;20995;-66
2022/12/09 06:59:54;;;;;;;17.90;9.80;;;;;;;3.15;100.00;100808.50;1786506;79;21054;-62
2022/12/09 07:02:21;;;;;;;13.13;8.73;;;;;;;3.23;100.00;100802.73;1784275;79;21350;-62
2022/12/09 07:04:53;;;;;;;13.20;9.58;;;;;;;3.26;100.00;100803.31;1782828;79;21124;-61
2022/12/09 07:07:22;;;;;;;13.35;9.28;;;;;;;3.29;100.00;100801.76;1786300;78;21348;-62
2022/12/09 07:09:50;;;;;;;15.83;9.80;;;;;;;3.30;100.00;100812.91;1782250;79;20936;-64
2022/12/09 07:12:17;;;;;;;12.60;8.45;;;;;;;3.22;100.00;100814.81;1783934;78;21078;-62
2022/12/09 07:14:45;;;;;;;15.68;9.48;;;;;;;3.22;100.00;100813.97;1787837;79;21437;-63
2022/12/09 07:17:17;;;;;;;14.30;8.85;;;;;;;3.12;100.00;100804.40;1785685;79;21019;-62
2022/12/09 07:19:44;;;;;;;14.50;9.35;;;;;;;3.04;100.00;100809.34;1778425;79;21200;-62
2022/12/09 07:22:12;;;;;;;15.68;10.00;;;;;;;2.97;100.00;100812.52;1777066;79;20989;-63
2022/12/09 07:24:39;;;;;;;15.53;9.23;;;;;;;2.95;100.00;100813.09;1782565;79;21000;-61
2022/12/09 07:27:07;;;;;;;15.38;10.38;;;;;;;2.90;100.00;100814.27;1787256;79;21000;-62
2022/12/09 07:29:35;;;;;;;15.23;10.72;;;;;;;2.90;100.00;100813.46;1780539;78;21543;-67
2022/12/09 07:32:02;;;;;;;15.50;10.72;;;;;;;2.87;100.00;100815.80;1798733;78;21226;-62
2022/12/09 07:34:30;;;;;;;14.28;10.72;;;;;;;2.86;100.00;100816.74;1794619;79;21002;-62
2022/12/09 07:36:57;;;;;;;14.13;11.08;;;;;;;2.92;100.00;100821.90;1805162;78;21424;-61
2022/12/09 07:39:25;;;;;;;18.23;10.58;;;;;;;2.86;100.00;100826.23;1827926;78;20967;-61
2022/12/09 07:41:55;;;;;;;15.23;10.88;;;;;;;2.86;100.00;100831.38;1816366;78;20975;-67
2022/12/09 07:44:23;;;;;;;17.48;11.90;;;;;;;2.84;100.00;100824.22;1775116;80;21757;-62
2022/12/09 07:46:50;;;;;;;17.80;12.13;;;;;;;2.82;100.00;100819.68;1774915;80;21034;-62
2022/12/09 07:49:17;;;;;;;15.93;12.37;;;;;;;2.83;100.00;100825.17;1775129;80;21407;-62
2022/12/09 07:51:45;;;;;;;15.95;12.18;;;;;;;2.85;100.00;100829.75;1774983;80;20928;-63
2022/12/09 07:54:14;;;;;;;20.97;14.63;;;;;;;2.84;100.00;100833.23;1774355;80;21051;-65
2022/12/09 07:56:41;;;;;;;23.12;15.93;;;;;;;2.88;100.00;100825.66;1774958;80;21769;-62
2022/12/09 07:59:09;;;;;;;26.62;17.42;;;;;;;2.88;100.00;100826.47;1774915;80;20955;-61
2022/12/09 08:01:37;;;;;;;22.73;14.75;;;;;;;2.94;100.00;100817.43;1778912;78;21473;-62
2022/12/09 08:04:05;;;;;;;16.70;12.70;;;;;;;2.98;100.00;100821.41;1780691;79;20923;-66
2022/12/09 08:06:34;;;;;;;20.77;13.62;;;;;;;2.98;100.00;100817.54;1794492;79;21618;-63
2022/12/09 08:09:03;;;;;;;22.30;13.05;;;;;;;2.98;100.00;100818.83;1766198;79;22165;-64
2022/12/09 08:11:31;;;;;;;20.15;14.20;;;;;;;2.98;100.00;100815.44;1794788;79;21028;-62
2022/12/09 08:14:00;;;;;;;19.37;13.65;;;;;;;3.01;100.00;100806.19;1795060;79;20948;-65
2022/12/09 08:16:27;;;;;;;19.52;12.35;;;;;;;3.06;100.00;100798.44;1780476;78;21003;-63
2022/12/09 08:18:55;;;;;;;19.10;12.82;;;;;;;3.09;100.00;100791.76;1787240;79;21085;-63
2022/12/09 08:21:28;;;;;;;15.90;10.80;;;;;;;3.13;100.00;100790.57;1777208;79;21152;-62
2022/12/09 08:23:57;;;;;;;17.30;11.85;;;;;;;3.12;100.00;100779.93;1763338;81;20995;-62
2022/12/09 08:26:27;;;;;;;18.15;11.90;;;;;;;3.15;100.00;100780.17;1761880;81;21136;-66
2022/12/09 08:28:55;;;;;;;14.55;10.00;;;;;;;3.21;100.00;100774.98;1763349;81;21507;-63
2022/12/09 08:31:24;;;;;;;13.90;10.10;;;;;;;3.21;100.00;100778.37;1763187;81;21050;-63
2022/12/09 08:33:51;;;;;;;16.05;9.75;;;;;;;3.23;100.00;100771.83;1766293;80;21229;-67
2022/12/09 08:36:22;;;;;;;19.07;12.70;;;;;;;3.31;100.00;100775.89;1762149;80;21425;-67
2022/12/09 08:38:49;;;;;;;18.73;11.10;;;;;;;3.36;100.00;100778.91;1753996;81;21046;-64
2022/12/09 08:41:33;;;;;;;16.00;9.83;;;;;;;3.39;100.00;100765.78;1753725;81;21485;-63
2022/12/09 08:43:51;;;;;;;16.93;10.53;;;;;;;3.44;100.00;100766.22;1754186;81;22322;-67
2022/12/09 08:46:19;;;;;;;17.95;11.97;;;;;;;3.46;100.00;100763.53;1707510;82;21157;-64
2022/12/09 08:48:46;;;;;;;17.07;10.65;;;;;;;3.45;100.00;100760.14;1734427;82;21025;-63
2022/12/09 08:51:14;;;;;;;17.73;11.05;;;;;;;3.51;100.00;100744.16;1756096;81;20995;-63
2022/12/09 08:53:41;;;;;;;12.60;9.00;;;;;;;3.60;100.00;100749.87;1704650;84;21224;-62
2022/12/09 08:56:10;;;;;;;15.08;10.85;;;;;;;3.65;100.00;100741.75;1753432;81;20901;-67
2022/12/09 08:58:38;;;;;;;16.60;11.85;;;;;;;3.67;100.00;100750.16;1732311;82;21232;-63
2022/12/09 09:01:05;;;;;;;16.77;11.68;;;;;;;3.70;100.00;100750.39;1773217;80;21504;-65
2022/12/09 09:03:32;;;;;;;16.02;11.33;;;;;;;3.75;100.00;100745.66;1728720;82;20904;-63
2022/12/09 09:06:02;;;;;;;16.57;10.32;;;;;;;3.83;100.00;100742.00;1749112;81;20986;-67
2022/12/09 09:08:30;;;;;;;17.62;10.63;;;;;;;3.90;100.00;100736.65;1746882;81;21049;-63
2022/12/09 09:10:59;;;;;;;15.88;11.35;;;;;;;3.96;100.00;100733.57;1735164;82;21145;-63
2022/12/09 09:13:26;;;;;;;14.38;10.58;;;;;;;3.99;100.00;100726.88;1752853;81;21074;-63
2022/12/09 09:15:53;;;;;;;15.70;10.68;;;;;;;4.06;100.00;100733.62;1735027;82;20952;-63
2022/12/09 09:18:21;;;;;;;15.78;10.75;;;;;;;4.21;100.00;100727.65;1752339;81;20907;-64
2022/12/09 09:20:51;;;;;;;16.50;11.15;;;;;;;4.24;100.00;100731.23;1774407;80;21542;-63
2022/12/09 09:23:18;;;;;;;18.32;11.55;;;;;;;4.26;100.00;100726.30;1771028;80;21298;-63
2022/12/09 09:25:45;;;;;;;16.77;11.25;;;;;;;4.26;100.00;100725.01;1734785;82;21011;-63
2022/12/09 09:28:12;;;;;;;18.90;12.95;;;;;;;4.27;100.00;100721.95;1751377;81;21557;-67
2022/12/09 09:30:39;;;;;;;20.72;13.85;;;;;;;4.21;100.00;100714.27;1733082;81;21187;-64
2022/12/09 09:33:07;;;;;;;19.50;12.28;;;;;;;4.11;100.00;100714.22;1758953;79;21032;-64
2022/12/09 09:35:34;;;;;;;14.93;10.48;;;;;;;3.93;100.00;100729.95;1789176;78;21171;-63
2022/12/09 09:38:03;;;;;;;17.30;11.83;;;;;;;3.80;100.00;100715.98;1799411;78;20987;-64
2022/12/09 09:40:30;;;;;;;16.37;11.55;;;;;;;3.70;100.00;100718.16;1785197;78;21489;-65
2022/12/09 09:42:57;;;;;;;16.35;11.08;;;;;;;3.70;100.00;100720.73;1746346;79;22419;-64
2022/12/09 09:45:25;;;;;;;18.02;12.15;;;;;;;3.75;100.00;100710.84;1807311;78;20931;-64
2022/12/09 09:48:02;;;;;;;18.48;12.45;;;;;;;3.80;100.00;100711.30;1787967;78;21130;-62
2022/12/09 09:50:49;;;;;;;20.85;13.05;;;;;;;3.85;100.00;100710.44;1779582;78;21027;-64
2022/12/09 09:53:31;;;;;;;16.25;12.05;;;;;;;3.90;100.00;100706.99;1781513;79;20983;-61
2022/12/09 09:56:01;;;;;;;17.37;10.82;;;;;;;3.99;100.00;100706.71;1770751;79;21093;-66
2022/12/09 09:58:57;;;;;;;16.60;12.10;;;;;;;4.04;100.00;100709.70;1794758;79;21869;-61
2022/12/09 10:01:25;;;;;;;19.45;12.68;;;;;;;4.07;100.00;100706.88;1793953;79;22112;-66
2022/12/09 10:04:09;;;;;;;20.23;12.65;;;;;;;4.13;100.00;100699.92;1794092;79;21035;-63
2022/12/09 10:07:04;;;;;;;20.10;12.27;;;;;;;4.16;100.00;100698.34;1794652;79;21046;-61
2022/12/09 13:58:49;;;;;;;23.13;18.90;;;;;;;0.94;100.00;100616.17;1790314;77;29176;-67
2022/12/09 14:01:55;;;;;;;25.00;19.30;;;;;;;1.23;100.00;100620.45;1717525;82;20917;-67
2022/12/09 14:04:32;;;;;;;44.20;28.52;;;;;;;1.25;100.00;100618.61;1758466;81;21229;-67
2022/12/09 14:07:25;;;;;;;82.80;45.40;;;;;;;1.20;100.00;100622.78;1758862;81;21067;-65
2022/12/09 14:09:56;;;;;;;111.70;64.85;;;;;;;1.17;100.00;100618.33;1758840;80;20927;-68
2022/12/09 14:12:31;;;;;;;104.72;69.07;;;;;;;0.75;100.00;100605.61;1758726;80;21045;-66
2022/12/09 14:15:19;;;;;;;141.37;94.58;;;;;;;0.69;100.00;100619.25;1759087;81;21533;-66
2022/12/09 14:17:51;;;;;;;51.63;36.95;;;;;;;0.60;100.00;100612.66;1757982;81;21905;-66
2022/12/09 14:20:23;;;;;;;31.02;22.45;;;;;;;0.56;100.00;100609.97;1758499;81;21272;-66
2022/12/09 14:23:09;;;;;;;;;;;;;;;0.51;100.00;100612.05;1761255;81;21451;-66
2022/12/09 14:25:43;;;;;;;38.60;23.92;;;;;;;0.46;100.00;100604.69;1757861;81;20510;-67
2022/12/09 14:28:39;;;;;;;32.65;20.50;;;;;;;0.38;100.00;100611.65;1745698;80;21031;-67
2022/12/09 14:31:06;;;;;;;35.38;21.62;;;;;;;0.33;100.00;100610.32;1727555;82;21122;-67
2022/12/09 14:33:41;;;;;;;71.33;35.85;;;;;;;0.32;100.00;100613.82;1732204;81;21379;-67
2022/12/09 14:36:19;;;;;;;65.15;34.27;;;;;;;0.30;100.00;100612.63;1758074;80;21615;-65
2022/12/09 14:39:00;;;;;;;36.65;23.70;;;;;;;0.33;100.00;100603.91;1751358;80;21026;-69
2022/12/09 14:41:52;;;;;;;84.40;56.73;;;;;;;0.36;100.00;100608.83;1735508;81;21007;-65
2022/12/09 14:44:43;;;;;;;61.58;40.40;;;;;;;0.39;100.00;100635.55;1756986;80;21158;-65
2022/12/09 14:47:28;;;;;;;37.95;24.77;;;;;;;0.46;100.00;100639.31;1758063;80;20947;-63
2022/12/09 14:49:57;;;;;;;39.48;23.75;;;;;;;0.57;100.00;100633.40;1757882;80;20994;-64
2022/12/09 14:52:30;;;;;;;40.52;26.80;;;;;;;0.70;100.00;100628.58;1757233;81;20893;-65
2022/12/09 14:55:02;;;;;;;42.60;27.05;;;;;;;0.75;100.00;100620.54;1757795;80;20987;-71
2022/12/09 14:57:34;;;;;;;46.50;27.65;;;;;;;0.78;100.00;100617.76;1762723;81;21270;-65
2022/12/09 15:00:02;;;;;;;44.35;24.92;;;;;;;0.78;100.00;100616.94;1766909;80;21058;-66
2022/12/09 15:02:30;;;;;;;31.48;21.42;;;;;;;0.82;100.00;100614.51;1767249;80;20935;-64
2022/12/09 15:04:59;;;;;;;40.12;25.75;;;;;;;0.82;100.00;100608.91;1763355;79;20943;-69
2022/12/09 15:07:29;;;;;;;44.58;26.15;;;;;;;0.91;100.00;100605.69;1763544;81;20990;-66
2022/12/09 15:10:04;;;;;;;30.52;20.95;;;;;;;0.99;100.00;100599.98;1763969;79;21301;-63
2022/12/09 15:12:39;;;;;;;32.20;20.30;;;;;;;0.97;100.00;100592.86;1764001;80;20919;-64
2022/12/09 15:15:18;;;;;;;36.42;26.75;;;;;;;0.97;100.00;100594.95;1762766;81;20986;-70
2022/12/09 15:18:19;;;;;;;43.87;27.35;;;;;;;0.98;100.00;100594.48;1763091;81;21049;-65
2022/12/09 15:20:53;;;;;;;30.62;20.12;;;;;;;1.03;100.00;100596.73;1765938;80;20896;-66